sensor_id;sensor_type;location;lat;lon;timestamp;temperature;humidity
54684;DHT22;40582;53.100;6.686;2023-08-20T00:02:01;17.70;99.90
54684;DHT22;40582;53.100;6.686;2023-08-20T00:04:28;17.70;99.90
54684;DHT22;40582;53.100;6.686;2023-08-20T00:06:54;17.70;99.90
54684;DHT22;40582;53.100;6.686;2023-08-20T00:09:20;17.70;99.90
54684;DHT22;40582;53.100;6.686;2023-08-20T00:11:46;17.70;99.90
54684;DHT22;40582;53.100;6.686;2023-08-20T00:14:15;17.60;99.90
54684;DHT22;40582;53.100;6.686;2023-08-20T00:16:42;17.60;99.90
54684;DHT22;40582;53.100;6.686;2023-08-20T00:19:08;17.60;99.90
54684;DHT22;40582;53.100;6.686;2023-08-20T00:21:35;17.60;99.90
54684;DHT22;40582;53.100;6.686;2023-08-20T00:24:01;17.50;99.90
54684;DHT22;40582;53.100;6.686;2023-08-20T00:26:27;17.60;99.90
54684;DHT22;40582;53.100;6.686;2023-08-20T00:28:53;17.50;99.90
54684;DHT22;40582;53.100;6.686;2023-08-20T00:31:18;17.50;99.90
54684;DHT22;40582;53.100;6.686;2023-08-20T00:33:44;17.50;99.90
54684;DHT22;40582;53.100;6.686;2023-08-20T00:36:10;17.50;99.90
54684;DHT22;40582;53.100;6.686;2023-08-20T00:38:36;17.40;99.90
54684;DHT22;40582;53.100;6.686;2023-08-20T00:41:01;17.40;99.90
54684;DHT22;40582;53.100;6.686;2023-08-20T00:43:27;17.40;99.90
54684;DHT22;40582;53.100;6.686;2023-08-20T00:45:53;17.40;99.90
54684;DHT22;40582;53.100;6.686;2023-08-20T00:48:18;17.40;99.90
54684;DHT22;40582;53.100;6.686;2023-08-20T00:50:44;17.30;99.90
54684;DHT22;40582;53.100;6.686;2023-08-20T00:53:12;17.30;99.90
54684;DHT22;40582;53.100;6.686;2023-08-20T00:55:38;17.30;99.90
54684;DHT22;40582;53.100;6.686;2023-08-20T00:58:05;17.30;99.90
54684;DHT22;40582;53.100;6.686;2023-08-20T01:00:31;17.30;99.90
54684;DHT22;40582;53.100;6.686;2023-08-20T01:02:57;17.30;99.90
54684;DHT22;40582;53.100;6.686;2023-08-20T01:05:23;17.20;99.90
54684;DHT22;40582;53.100;6.686;2023-08-20T01:08:03;17.20;99.90
54684;DHT22;40582;53.100;6.686;2023-08-20T01:10:40;17.20;99.90
54684;DHT22;40582;53.100;6.686;2023-08-20T01:13:08;17.20;99.90
54684;DHT22;40582;53.100;6.686;2023-08-20T01:15:34;17.20;99.90
54684;DHT22;40582;53.100;6.686;2023-08-20T01:18:00;17.20;99.90
54684;DHT22;40582;53.100;6.686;2023-08-20T01:20:29;17.20;99.90
54684;DHT22;40582;53.100;6.686;2023-08-20T01:26:00;17.20;99.90
54684;DHT22;40582;53.100;6.686;2023-08-20T01:28:31;17.20;99.90
54684;DHT22;40582;53.100;6.686;2023-08-20T01:30:59;17.20;99.90
54684;DHT22;40582;53.100;6.686;2023-08-20T01:33:26;17.20;99.90
54684;DHT22;40582;53.100;6.686;2023-08-20T01:35:53;17.20;99.90
54684;DHT22;40582;53.100;6.686;2023-08-20T01:38:19;17.20;99.90
54684;DHT22;40582;53.100;6.686;2023-08-20T01:40:45;17.20;99.90
54684;DHT22;40582;53.100;6.686;2023-08-20T01:43:11;17.20;99.90
54684;DHT22;40582;53.100;6.686;2023-08-20T01:45:36;17.20;99.90
54684;DHT22;40582;53.100;6.686;2023-08-20T01:48:02;17.20;99.90
54684;DHT22;40582;53.100;6.686;2023-08-20T01:50:29;17.10;99.90
54684;DHT22;40582;53.100;6.686;2023-08-20T01:52:55;17.10;99.90
54684;DHT22;40582;53.100;6.686;2023-08-20T01:55:21;17.10;99.90
54684;DHT22;40582;53.100;6.686;2023-08-20T01:57:47;17.10;99.90
54684;DHT22;40582;53.100;6.686;2023-08-20T02:00:13;17.10;99.90
54684;DHT22;40582;53.100;6.686;2023-08-20T02:02:38;17.10;99.90
54684;DHT22;40582;53.100;6.686;2023-08-20T02:05:04;17.10;99.90
54684;DHT22;40582;53.100;6.686;2023-08-20T02:07:30;17.10;99.90
54684;DHT22;40582;53.100;6.686;2023-08-20T02:09:56;17.10;99.90
54684;DHT22;40582;53.100;6.686;2023-08-20T02:12:21;17.10;99.90
54684;DHT22;40582;53.100;6.686;2023-08-20T02:14:47;17.10;99.90
54684;DHT22;40582;53.100;6.686;2023-08-20T02:17:13;17.10;99.90
54684;DHT22;40582;53.100;6.686;2023-08-20T02:19:39;17.10;99.90
54684;DHT22;40582;53.100;6.686;2023-08-20T02:22:05;17.10;99.90
54684;DHT22;40582;53.100;6.686;2023-08-20T02:24:31;17.00;99.90
54684;DHT22;40582;53.100;6.686;2023-08-20T02:26:57;17.00;99.90
54684;DHT22;40582;53.100;6.686;2023-08-20T02:29:23;17.00;99.90
54684;DHT22;40582;53.100;6.686;2023-08-20T02:31:48;16.90;99.90
54684;DHT22;40582;53.100;6.686;2023-08-20T02:34:14;17.00;99.90
54684;DHT22;40582;53.100;6.686;2023-08-20T02:36:40;16.90;99.90
54684;DHT22;40582;53.100;6.686;2023-08-20T02:39:05;16.90;99.90
54684;DHT22;40582;53.100;6.686;2023-08-20T02:41:36;16.90;99.90
54684;DHT22;40582;53.100;6.686;2023-08-20T02:44:02;17.00;99.90
54684;DHT22;40582;53.100;6.686;2023-08-20T02:46:28;16.90;99.90
54684;DHT22;40582;53.100;6.686;2023-08-20T02:48:54;16.90;99.90
54684;DHT22;40582;53.100;6.686;2023-08-20T02:51:20;16.90;99.90
54684;DHT22;40582;53.100;6.686;2023-08-20T02:53:45;16.90;99.90
54684;DHT22;40582;53.100;6.686;2023-08-20T02:56:11;17.00;99.90
54684;DHT22;40582;53.100;6.686;2023-08-20T02:58:37;17.00;99.90
54684;DHT22;40582;53.100;6.686;2023-08-20T03:01:02;16.90;99.90
54684;DHT22;40582;53.100;6.686;2023-08-20T03:03:28;16.90;99.90
54684;DHT22;40582;53.100;6.686;2023-08-20T03:05:54;16.90;99.90
54684;DHT22;40582;53.100;6.686;2023-08-20T03:08:20;16.90;99.90
54684;DHT22;40582;53.100;6.686;2023-08-20T03:10:45;16.90;99.90
54684;DHT22;40582;53.100;6.686;2023-08-20T03:13:11;16.90;99.90
54684;DHT22;40582;53.100;6.686;2023-08-20T03:15:37;16.80;99.90
54684;DHT22;40582;53.100;6.686;2023-08-20T03:18:03;16.80;99.90
54684;DHT22;40582;53.100;6.686;2023-08-20T03:20:29;16.80;99.90
54684;DHT22;40582;53.100;6.686;2023-08-20T03:22:57;16.80;99.90
54684;DHT22;40582;53.100;6.686;2023-08-20T03:25:23;16.80;99.90
54684;DHT22;40582;53.100;6.686;2023-08-20T03:27:49;16.80;99.90
54684;DHT22;40582;53.100;6.686;2023-08-20T03:30:15;16.70;99.90
54684;DHT22;40582;53.100;6.686;2023-08-20T03:32:41;16.70;99.90
54684;DHT22;40582;53.100;6.686;2023-08-20T03:35:07;16.70;99.90
54684;DHT22;40582;53.100;6.686;2023-08-20T03:37:33;16.70;99.90
54684;DHT22;40582;53.100;6.686;2023-08-20T03:39:58;16.70;99.90
54684;DHT22;40582;53.100;6.686;2023-08-20T03:42:24;16.70;99.90
54684;DHT22;40582;53.100;6.686;2023-08-20T03:44:50;16.70;99.90
54684;DHT22;40582;53.100;6.686;2023-08-20T03:47:15;16.70;99.90
54684;DHT22;40582;53.100;6.686;2023-08-20T03:49:41;16.70;99.90
54684;DHT22;40582;53.100;6.686;2023-08-20T03:52:06;16.70;99.90
54684;DHT22;40582;53.100;6.686;2023-08-20T03:54:33;16.70;99.90
54684;DHT22;40582;53.100;6.686;2023-08-20T03:56:59;16.60;99.90
54684;DHT22;40582;53.100;6.686;2023-08-20T03:59:25;16.60;99.90
54684;DHT22;40582;53.100;6.686;2023-08-20T04:01:51;16.60;99.90
54684;DHT22;40582;53.100;6.686;2023-08-20T04:04:16;16.60;99.90
54684;DHT22;40582;53.100;6.686;2023-08-20T04:06:42;16.60;99.90
54684;DHT22;40582;53.100;6.686;2023-08-20T04:09:08;16.60;99.90
54684;DHT22;40582;53.100;6.686;2023-08-20T04:11:35;16.60;99.90
54684;DHT22;40582;53.100;6.686;2023-08-20T04:14:00;16.50;99.90
54684;DHT22;40582;53.100;6.686;2023-08-20T04:16:27;16.50;99.90
54684;DHT22;40582;53.100;6.686;2023-08-20T04:18:53;16.50;99.90
54684;DHT22;40582;53.100;6.686;2023-08-20T04:21:19;16.50;99.90
54684;DHT22;40582;53.100;6.686;2023-08-20T04:23:44;16.50;99.90
54684;DHT22;40582;53.100;6.686;2023-08-20T04:26:10;16.50;99.90
54684;DHT22;40582;53.100;6.686;2023-08-20T04:28:36;16.50;99.90
54684;DHT22;40582;53.100;6.686;2023-08-20T04:31:01;16.50;99.90
54684;DHT22;40582;53.100;6.686;2023-08-20T04:33:28;16.50;99.90
54684;DHT22;40582;53.100;6.686;2023-08-20T04:35:53;16.50;99.90
54684;DHT22;40582;53.100;6.686;2023-08-20T04:38:19;16.50;99.90
54684;DHT22;40582;53.100;6.686;2023-08-20T04:40:48;16.50;99.90
54684;DHT22;40582;53.100;6.686;2023-08-20T04:43:14;16.50;99.90
54684;DHT22;40582;53.100;6.686;2023-08-20T04:45:41;16.50;99.90
54684;DHT22;40582;53.100;6.686;2023-08-20T04:48:07;16.60;99.90
54684;DHT22;40582;53.100;6.686;2023-08-20T04:50:33;16.60;99.90
54684;DHT22;40582;53.100;6.686;2023-08-20T04:52:58;16.60;99.90
54684;DHT22;40582;53.100;6.686;2023-08-20T04:55:28;16.60;99.90
54684;DHT22;40582;53.100;6.686;2023-08-20T04:57:53;16.60;99.90
54684;DHT22;40582;53.100;6.686;2023-08-20T05:00:20;16.60;99.90
54684;DHT22;40582;53.100;6.686;2023-08-20T05:02:46;16.60;99.90
54684;DHT22;40582;53.100;6.686;2023-08-20T05:05:12;16.60;99.90
54684;DHT22;40582;53.100;6.686;2023-08-20T05:07:37;16.50;99.90
54684;DHT22;40582;53.100;6.686;2023-08-20T05:10:04;16.60;99.90
54684;DHT22;40582;53.100;6.686;2023-08-20T05:12:29;16.60;99.90
54684;DHT22;40582;53.100;6.686;2023-08-20T05:14:55;16.60;99.90
54684;DHT22;40582;53.100;6.686;2023-08-20T05:17:21;16.60;99.90
54684;DHT22;40582;53.100;6.686;2023-08-20T05:19:47;16.70;99.90
54684;DHT22;40582;53.100;6.686;2023-08-20T05:22:13;16.70;99.90
54684;DHT22;40582;53.100;6.686;2023-08-20T05:24:38;16.80;99.90
54684;DHT22;40582;53.100;6.686;2023-08-20T05:29:30;16.80;99.90
54684;DHT22;40582;53.100;6.686;2023-08-20T05:31:56;16.80;99.90
54684;DHT22;40582;53.100;6.686;2023-08-20T05:34:22;16.90;99.90
54684;DHT22;40582;53.100;6.686;2023-08-20T05:36:47;16.90;99.90
54684;DHT22;40582;53.100;6.686;2023-08-20T05:39:13;16.90;99.90
54684;DHT22;40582;53.100;6.686;2023-08-20T05:41:39;17.00;99.90
54684;DHT22;40582;53.100;6.686;2023-08-20T05:44:04;17.00;99.90
54684;DHT22;40582;53.100;6.686;2023-08-20T05:46:30;17.00;99.90
54684;DHT22;40582;53.100;6.686;2023-08-20T05:48:56;17.00;99.90
54684;DHT22;40582;53.100;6.686;2023-08-20T05:51:21;17.10;99.90
54684;DHT22;40582;53.100;6.686;2023-08-20T05:53:47;17.10;99.90
54684;DHT22;40582;53.100;6.686;2023-08-20T05:56:13;17.10;99.90
54684;DHT22;40582;53.100;6.686;2023-08-20T05:58:38;17.10;99.90
54684;DHT22;40582;53.100;6.686;2023-08-20T06:01:04;17.10;99.90
54684;DHT22;40582;53.100;6.686;2023-08-20T06:03:30;18.00;99.90
54684;DHT22;40582;53.100;6.686;2023-08-20T06:05:57;19.80;99.90
54684;DHT22;40582;53.100;6.686;2023-08-20T06:08:23;20.30;99.90
54684;DHT22;40582;53.100;6.686;2023-08-20T06:10:50;19.90;99.90
54684;DHT22;40582;53.100;6.686;2023-08-20T06:13:15;19.70;99.90
54684;DHT22;40582;53.100;6.686;2023-08-20T06:15:41;19.60;99.90
54684;DHT22;40582;53.100;6.686;2023-08-20T06:18:07;19.50;99.90
54684;DHT22;40582;53.100;6.686;2023-08-20T06:20:32;19.50;99.90
54684;DHT22;40582;53.100;6.686;2023-08-20T06:22:58;19.40;99.90
54684;DHT22;40582;53.100;6.686;2023-08-20T06:25:24;20.10;99.90
54684;DHT22;40582;53.100;6.686;2023-08-20T06:27:49;20.10;99.90
54684;DHT22;40582;53.100;6.686;2023-08-20T06:30:15;19.90;99.90
54684;DHT22;40582;53.100;6.686;2023-08-20T06:32:42;19.80;99.90
54684;DHT22;40582;53.100;6.686;2023-08-20T06:35:08;19.60;99.90
54684;DHT22;40582;53.100;6.686;2023-08-20T06:37:35;19.60;99.90
54684;DHT22;40582;53.100;6.686;2023-08-20T06:40:01;19.60;99.90
54684;DHT22;40582;53.100;6.686;2023-08-20T06:42:26;19.50;99.90
54684;DHT22;40582;53.100;6.686;2023-08-20T06:44:52;19.60;99.90
54684;DHT22;40582;53.100;6.686;2023-08-20T06:47:18;19.70;99.90
54684;DHT22;40582;53.100;6.686;2023-08-20T06:49:44;20.10;99.90
54684;DHT22;40582;53.100;6.686;2023-08-20T06:52:09;20.00;99.90
54684;DHT22;40582;53.100;6.686;2023-08-20T06:54:35;20.10;99.90
54684;DHT22;40582;53.100;6.686;2023-08-20T06:57:01;20.60;99.90
54684;DHT22;40582;53.100;6.686;2023-08-20T06:59:26;20.90;99.90
54684;DHT22;40582;53.100;6.686;2023-08-20T07:01:52;21.70;99.90
54684;DHT22;40582;53.100;6.686;2023-08-20T07:04:18;22.40;99.90
54684;DHT22;40582;53.100;6.686;2023-08-20T07:06:44;22.40;99.90
54684;DHT22;40582;53.100;6.686;2023-08-20T07:09:09;22.40;99.90
54684;DHT22;40582;53.100;6.686;2023-08-20T07:11:35;23.50;99.90
54684;DHT22;40582;53.100;6.686;2023-08-20T07:14:01;24.30;99.90
54684;DHT22;40582;53.100;6.686;2023-08-20T07:16:26;25.60;99.90
54684;DHT22;40582;53.100;6.686;2023-08-20T07:18:52;26.00;99.90
54684;DHT22;40582;53.100;6.686;2023-08-20T07:21:18;26.90;99.90
54684;DHT22;40582;53.100;6.686;2023-08-20T07:23:44;26.90;99.90
54684;DHT22;40582;53.100;6.686;2023-08-20T07:26:11;27.50;99.90
54684;DHT22;40582;53.100;6.686;2023-08-20T07:28:40;28.10;99.90
54684;DHT22;40582;53.100;6.686;2023-08-20T07:31:27;28.50;99.90
54684;DHT22;40582;53.100;6.686;2023-08-20T07:33:54;29.00;99.10
54684;DHT22;40582;53.100;6.686;2023-08-20T07:36:22;29.20;97.90
54684;DHT22;40582;53.100;6.686;2023-08-20T07:38:48;29.40;97.10
54684;DHT22;40582;53.100;6.686;2023-08-20T07:41:13;29.60;96.80
54684;DHT22;40582;53.100;6.686;2023-08-20T07:43:40;29.90;96.20
54684;DHT22;40582;53.100;6.686;2023-08-20T07:46:07;30.10;95.60
54684;DHT22;40582;53.100;6.686;2023-08-20T07:48:33;30.20;94.90
54684;DHT22;40582;53.100;6.686;2023-08-20T07:51:00;30.30;94.40
54684;DHT22;40582;53.100;6.686;2023-08-20T08:00:47;30.10;93.50
54684;DHT22;40582;53.100;6.686;2023-08-20T08:03:13;30.20;94.40
54684;DHT22;40582;53.100;6.686;2023-08-20T08:05:49;30.30;94.20
54684;DHT22;40582;53.100;6.686;2023-08-20T08:08:18;30.30;93.60
54684;DHT22;40582;53.100;6.686;2023-08-20T08:10:45;30.20;93.70
54684;DHT22;40582;53.100;6.686;2023-08-20T08:13:16;30.30;93.50
54684;DHT22;40582;53.100;6.686;2023-08-20T08:15:42;30.20;93.60
54684;DHT22;40582;53.100;6.686;2023-08-20T08:18:08;30.10;93.20
54684;DHT22;40582;53.100;6.686;2023-08-20T08:20:33;30.10;93.00
54684;DHT22;40582;53.100;6.686;2023-08-20T08:23:00;30.10;93.00
54684;DHT22;40582;53.100;6.686;2023-08-20T08:25:26;29.90;93.40
54684;DHT22;40582;53.100;6.686;2023-08-20T08:27:51;29.80;93.00
54684;DHT22;40582;53.100;6.686;2023-08-20T08:30:17;29.80;93.10
54684;DHT22;40582;53.100;6.686;2023-08-20T08:32:43;29.60;92.90
54684;DHT22;40582;53.100;6.686;2023-08-20T08:35:09;29.60;92.80
54684;DHT22;40582;53.100;6.686;2023-08-20T08:37:34;29.50;92.80
54684;DHT22;40582;53.100;6.686;2023-08-20T08:40:00;29.40;92.90
54684;DHT22;40582;53.100;6.686;2023-08-20T08:42:26;29.30;93.50
54684;DHT22;40582;53.100;6.686;2023-08-20T08:44:52;29.20;93.50
54684;DHT22;40582;53.100;6.686;2023-08-20T08:47:21;29.20;93.00
54684;DHT22;40582;53.100;6.686;2023-08-20T08:49:48;28.70;93.80
54684;DHT22;40582;53.100;6.686;2023-08-20T08:52:15;28.60;94.20
54684;DHT22;40582;53.100;6.686;2023-08-20T08:54:41;28.40;94.30
54684;DHT22;40582;53.100;6.686;2023-08-20T08:57:08;28.20;94.80
54684;DHT22;40582;53.100;6.686;2023-08-20T08:59:34;27.90;95.00
54684;DHT22;40582;53.100;6.686;2023-08-20T09:01:59;27.40;95.90
54684;DHT22;40582;53.100;6.686;2023-08-20T09:04:26;27.10;96.90
54684;DHT22;40582;53.100;6.686;2023-08-20T09:06:55;27.20;97.50
54684;DHT22;40582;53.100;6.686;2023-08-20T09:09:21;27.00;97.30
54684;DHT22;40582;53.100;6.686;2023-08-20T09:11:48;26.90;97.60
54684;DHT22;40582;53.100;6.686;2023-08-20T09:14:21;26.60;97.50
54684;DHT22;40582;53.100;6.686;2023-08-20T09:17:00;26.30;97.70
54684;DHT22;40582;53.100;6.686;2023-08-20T09:19:38;26.00;97.30
54684;DHT22;40582;53.100;6.686;2023-08-20T09:22:04;25.90;98.60
54684;DHT22;40582;53.100;6.686;2023-08-20T09:24:54;25.80;99.30
54684;DHT22;40582;53.100;6.686;2023-08-20T09:27:21;25.70;98.70
54684;DHT22;40582;53.100;6.686;2023-08-20T09:29:49;25.50;99.70
54684;DHT22;40582;53.100;6.686;2023-08-20T09:32:16;25.50;99.90
54684;DHT22;40582;53.100;6.686;2023-08-20T09:34:43;25.50;99.90
54684;DHT22;40582;53.100;6.686;2023-08-20T09:37:12;25.70;99.60
54684;DHT22;40582;53.100;6.686;2023-08-20T09:39:38;25.70;99.30
54684;DHT22;40582;53.100;6.686;2023-08-20T09:42:05;25.80;99.90
54684;DHT22;40582;53.100;6.686;2023-08-20T09:44:35;26.00;99.70
54684;DHT22;40582;53.100;6.686;2023-08-20T09:47:12;26.20;99.20
54684;DHT22;40582;53.100;6.686;2023-08-20T09:52:12;26.40;98.80
54684;DHT22;40582;53.100;6.686;2023-08-20T09:55:00;26.20;98.60
54684;DHT22;40582;53.100;6.686;2023-08-20T09:57:32;25.90;97.40
54684;DHT22;40582;53.100;6.686;2023-08-20T10:00:00;25.90;98.20
54684;DHT22;40582;53.100;6.686;2023-08-20T10:02:26;25.90;98.10
54684;DHT22;40582;53.100;6.686;2023-08-20T10:04:52;26.10;98.60
54684;DHT22;40582;53.100;6.686;2023-08-20T10:07:19;26.20;98.30
54684;DHT22;40582;53.100;6.686;2023-08-20T10:09:46;26.40;98.50
54684;DHT22;40582;53.100;6.686;2023-08-20T10:12:14;26.50;98.20
54684;DHT22;40582;53.100;6.686;2023-08-20T10:14:41;26.30;98.00
54684;DHT22;40582;53.100;6.686;2023-08-20T10:17:08;26.10;97.80
54684;DHT22;40582;53.100;6.686;2023-08-20T10:19:36;26.10;98.00
54684;DHT22;40582;53.100;6.686;2023-08-20T10:22:03;26.20;98.50
54684;DHT22;40582;53.100;6.686;2023-08-20T10:24:52;26.30;98.60
54684;DHT22;40582;53.100;6.686;2023-08-20T10:27:32;26.50;97.90
54684;DHT22;40582;53.100;6.686;2023-08-20T10:29:59;26.70;97.10
54684;DHT22;40582;53.100;6.686;2023-08-20T10:32:46;26.50;97.30
54684;DHT22;40582;53.100;6.686;2023-08-20T10:35:12;26.50;97.80
54684;DHT22;40582;53.100;6.686;2023-08-20T10:40:53;26.50;98.20
54684;DHT22;40582;53.100;6.686;2023-08-20T10:46:22;26.40;98.10
54684;DHT22;40582;53.100;6.686;2023-08-20T10:48:54;26.40;97.30
54684;DHT22;40582;53.100;6.686;2023-08-20T10:51:24;26.50;97.60
54684;DHT22;40582;53.100;6.686;2023-08-20T10:56:25;26.50;96.10
54684;DHT22;40582;53.100;6.686;2023-08-20T11:01:52;26.60;95.50
54684;DHT22;40582;53.100;6.686;2023-08-20T11:04:20;26.70;95.30
54684;DHT22;40582;53.100;6.686;2023-08-20T11:06:46;26.60;95.60
54684;DHT22;40582;53.100;6.686;2023-08-20T11:09:14;26.70;95.60
54684;DHT22;40582;53.100;6.686;2023-08-20T11:11:40;26.80;95.60
54684;DHT22;40582;53.100;6.686;2023-08-20T11:14:08;26.80;95.60
54684;DHT22;40582;53.100;6.686;2023-08-20T11:16:37;26.70;95.50
54684;DHT22;40582;53.100;6.686;2023-08-20T11:19:04;26.70;95.60
54684;DHT22;40582;53.100;6.686;2023-08-20T11:21:34;26.70;95.30
54684;DHT22;40582;53.100;6.686;2023-08-20T11:24:01;26.70;95.30
54684;DHT22;40582;53.100;6.686;2023-08-20T11:26:27;26.60;95.10
54684;DHT22;40582;53.100;6.686;2023-08-20T11:28:53;26.60;94.30
54684;DHT22;40582;53.100;6.686;2023-08-20T11:31:19;26.50;94.40
54684;DHT22;40582;53.100;6.686;2023-08-20T11:33:45;26.70;94.50
54684;DHT22;40582;53.100;6.686;2023-08-20T11:36:11;26.80;94.10
54684;DHT22;40582;53.100;6.686;2023-08-20T11:38:37;27.00;94.30
54684;DHT22;40582;53.100;6.686;2023-08-20T11:41:03;27.00;94.40
54684;DHT22;40582;53.100;6.686;2023-08-20T11:43:29;27.00;94.10
54684;DHT22;40582;53.100;6.686;2023-08-20T11:45:55;27.00;93.60
54684;DHT22;40582;53.100;6.686;2023-08-20T11:48:22;27.00;93.30
54684;DHT22;40582;53.100;6.686;2023-08-20T11:50:49;27.00;93.00
54684;DHT22;40582;53.100;6.686;2023-08-20T11:53:15;27.00;93.20
54684;DHT22;40582;53.100;6.686;2023-08-20T11:55:41;27.10;93.90
54684;DHT22;40582;53.100;6.686;2023-08-20T11:58:14;27.20;93.60
54684;DHT22;40582;53.100;6.686;2023-08-20T12:00:40;27.00;93.00
54684;DHT22;40582;53.100;6.686;2023-08-20T12:03:08;27.00;92.90
54684;DHT22;40582;53.100;6.686;2023-08-20T12:05:34;27.00;92.70
54684;DHT22;40582;53.100;6.686;2023-08-20T12:08:01;27.10;92.50
54684;DHT22;40582;53.100;6.686;2023-08-20T12:10:29;27.10;92.40
54684;DHT22;40582;53.100;6.686;2023-08-20T12:12:56;27.00;92.20
54684;DHT22;40582;53.100;6.686;2023-08-20T12:15:23;26.90;91.90
54684;DHT22;40582;53.100;6.686;2023-08-20T12:18:16;26.80;92.30
54684;DHT22;40582;53.100;6.686;2023-08-20T12:20:41;26.90;91.30
54684;DHT22;40582;53.100;6.686;2023-08-20T12:23:07;27.00;91.30
54684;DHT22;40582;53.100;6.686;2023-08-20T12:25:34;27.10;91.30
54684;DHT22;40582;53.100;6.686;2023-08-20T12:28:01;27.10;90.70
54684;DHT22;40582;53.100;6.686;2023-08-20T12:30:28;27.10;91.10
54684;DHT22;40582;53.100;6.686;2023-08-20T12:32:54;27.10;90.50
54684;DHT22;40582;53.100;6.686;2023-08-20T12:35:20;27.00;90.30
54684;DHT22;40582;53.100;6.686;2023-08-20T12:37:46;27.00;90.00
54684;DHT22;40582;53.100;6.686;2023-08-20T12:40:12;27.00;90.30
54684;DHT22;40582;53.100;6.686;2023-08-20T12:42:38;27.20;90.70
54684;DHT22;40582;53.100;6.686;2023-08-20T12:45:07;27.30;90.40
54684;DHT22;40582;53.100;6.686;2023-08-20T12:47:34;27.40;88.70
54684;DHT22;40582;53.100;6.686;2023-08-20T12:50:00;27.40;89.10
54684;DHT22;40582;53.100;6.686;2023-08-20T12:52:26;27.40;88.50
54684;DHT22;40582;53.100;6.686;2023-08-20T12:54:51;27.40;88.80
54684;DHT22;40582;53.100;6.686;2023-08-20T12:57:17;27.40;90.10
54684;DHT22;40582;53.100;6.686;2023-08-20T12:59:43;27.50;90.10
54684;DHT22;40582;53.100;6.686;2023-08-20T13:02:10;27.60;90.00
54684;DHT22;40582;53.100;6.686;2023-08-20T13:04:36;27.50;89.30
54684;DHT22;40582;53.100;6.686;2023-08-20T13:07:03;27.70;89.10
54684;DHT22;40582;53.100;6.686;2023-08-20T13:09:28;27.90;89.40
54684;DHT22;40582;53.100;6.686;2023-08-20T13:11:56;28.00;89.70
54684;DHT22;40582;53.100;6.686;2023-08-20T13:14:22;28.10;89.60
54684;DHT22;40582;53.100;6.686;2023-08-20T13:16:48;28.00;88.80
54684;DHT22;40582;53.100;6.686;2023-08-20T13:19:14;27.90;89.10
54684;DHT22;40582;53.100;6.686;2023-08-20T13:21:40;28.00;89.20
54684;DHT22;40582;53.100;6.686;2023-08-20T13:24:06;28.00;89.70
54684;DHT22;40582;53.100;6.686;2023-08-20T13:26:33;27.90;90.40
54684;DHT22;40582;53.100;6.686;2023-08-20T13:28:58;27.90;90.70
54684;DHT22;40582;53.100;6.686;2023-08-20T13:31:24;27.90;90.30
54684;DHT22;40582;53.100;6.686;2023-08-20T13:33:49;28.00;90.30
54684;DHT22;40582;53.100;6.686;2023-08-20T13:36:15;28.00;89.40
54684;DHT22;40582;53.100;6.686;2023-08-20T13:38:41;28.00;88.60
54684;DHT22;40582;53.100;6.686;2023-08-20T13:41:07;28.00;88.50
54684;DHT22;40582;53.100;6.686;2023-08-20T13:43:34;27.90;87.20
54684;DHT22;40582;53.100;6.686;2023-08-20T13:45:59;27.80;87.30
54684;DHT22;40582;53.100;6.686;2023-08-20T13:48:25;27.50;87.80
54684;DHT22;40582;53.100;6.686;2023-08-20T13:50:51;27.40;88.00
54684;DHT22;40582;53.100;6.686;2023-08-20T13:53:16;27.30;87.50
54684;DHT22;40582;53.100;6.686;2023-08-20T13:55:42;27.30;87.60
54684;DHT22;40582;53.100;6.686;2023-08-20T13:58:07;27.30;88.00
54684;DHT22;40582;53.100;6.686;2023-08-20T14:00:33;27.40;88.50
54684;DHT22;40582;53.100;6.686;2023-08-20T14:02:59;27.40;86.80
54684;DHT22;40582;53.100;6.686;2023-08-20T14:05:25;27.40;86.70
54684;DHT22;40582;53.100;6.686;2023-08-20T14:07:50;27.30;86.50
54684;DHT22;40582;53.100;6.686;2023-08-20T14:10:16;27.30;86.70
54684;DHT22;40582;53.100;6.686;2023-08-20T14:12:42;27.10;86.70
54684;DHT22;40582;53.100;6.686;2023-08-20T14:15:08;26.80;87.80
54684;DHT22;40582;53.100;6.686;2023-08-20T14:17:34;26.80;88.70
54684;DHT22;40582;53.100;6.686;2023-08-20T14:19:59;26.90;89.00
54684;DHT22;40582;53.100;6.686;2023-08-20T14:22:25;27.10;88.40
54684;DHT22;40582;53.100;6.686;2023-08-20T14:24:51;27.30;88.90
54684;DHT22;40582;53.100;6.686;2023-08-20T14:27:17;27.40;89.50
54684;DHT22;40582;53.100;6.686;2023-08-20T14:29:43;27.40;89.40
54684;DHT22;40582;53.100;6.686;2023-08-20T14:32:09;27.50;90.10
54684;DHT22;40582;53.100;6.686;2023-08-20T14:34:35;27.40;89.10
54684;DHT22;40582;53.100;6.686;2023-08-20T14:37:01;27.40;86.70
54684;DHT22;40582;53.100;6.686;2023-08-20T14:39:26;27.40;87.00
54684;DHT22;40582;53.100;6.686;2023-08-20T14:41:52;27.40;87.20
54684;DHT22;40582;53.100;6.686;2023-08-20T14:44:18;27.40;87.20
54684;DHT22;40582;53.100;6.686;2023-08-20T14:46:43;27.30;87.80
54684;DHT22;40582;53.100;6.686;2023-08-20T14:49:09;27.10;88.20
54684;DHT22;40582;53.100;6.686;2023-08-20T14:51:34;26.80;87.90
54684;DHT22;40582;53.100;6.686;2023-08-20T14:54:01;26.60;89.00
54684;DHT22;40582;53.100;6.686;2023-08-20T14:56:26;26.70;89.60
54684;DHT22;40582;53.100;6.686;2023-08-20T14:58:52;26.70;89.80
54684;DHT22;40582;53.100;6.686;2023-08-20T15:01:18;26.80;90.10
54684;DHT22;40582;53.100;6.686;2023-08-20T15:03:43;26.70;90.50
54684;DHT22;40582;53.100;6.686;2023-08-20T15:06:09;26.40;90.50
54684;DHT22;40582;53.100;6.686;2023-08-20T15:08:35;26.10;90.80
54684;DHT22;40582;53.100;6.686;2023-08-20T15:11:01;25.90;91.30
54684;DHT22;40582;53.100;6.686;2023-08-20T15:13:32;25.90;91.90
54684;DHT22;40582;53.100;6.686;2023-08-20T15:15:58;26.00;91.90
54684;DHT22;40582;53.100;6.686;2023-08-20T15:18:24;25.90;92.10
54684;DHT22;40582;53.100;6.686;2023-08-20T15:20:56;25.70;92.20
54684;DHT22;40582;53.100;6.686;2023-08-20T15:23:24;25.50;92.30
54684;DHT22;40582;53.100;6.686;2023-08-20T15:25:54;25.40;92.60
54684;DHT22;40582;53.100;6.686;2023-08-20T15:28:24;25.30;92.80
54684;DHT22;40582;53.100;6.686;2023-08-20T15:30:53;25.40;93.30
54684;DHT22;40582;53.100;6.686;2023-08-20T15:33:19;25.40;93.30
54684;DHT22;40582;53.100;6.686;2023-08-20T15:35:46;25.30;93.20
54684;DHT22;40582;53.100;6.686;2023-08-20T15:38:11;25.30;93.40
54684;DHT22;40582;53.100;6.686;2023-08-20T15:40:40;25.40;93.80
54684;DHT22;40582;53.100;6.686;2023-08-20T15:43:06;25.40;94.20
54684;DHT22;40582;53.100;6.686;2023-08-20T15:45:32;25.50;94.70
54684;DHT22;40582;53.100;6.686;2023-08-20T15:47:57;25.50;94.00
54684;DHT22;40582;53.100;6.686;2023-08-20T15:50:24;25.50;93.70
54684;DHT22;40582;53.100;6.686;2023-08-20T15:52:49;25.50;94.00
54684;DHT22;40582;53.100;6.686;2023-08-20T15:55:15;25.30;93.90